Time;durP1;ratioP1;P1;durP2;ratioP2;P2;SDS_P1;SDS_P2;PMS_P1;PMS_P2;Temp;Humidity;BMP_temperature;BMP_pressure;BME280_temperature;BME280_humidity;BME280_pressure;Samples;Min_cycle;Max_cycle;Signal;HPM_P1;HPM_P2
2021/12/13 00:01:33;;;;;;;1.17;0.35;;;18.30;54.90;;;;;;5069247;28;20062;-48
2021/12/13 00:04:08;;;;;;;1.33;0.28;;;18.30;54.80;;;;;;5072776;28;20433;-54
2021/12/13 00:06:38;;;;;;;0.52;0.30;;;18.30;54.80;;;;;;5062764;28;20089;-51
2021/12/13 00:09:11;;;;;;;0.25;0.25;;;18.30;54.90;;;;;;5062351;28;20037;-52
2021/12/13 00:11:41;;;;;;;0.77;0.38;;;18.30;54.80;;;;;;5080093;28;20067;-53
2021/12/13 00:14:12;;;;;;;0.63;0.63;;;18.30;54.80;;;;;;5069503;28;20048;-48
2021/12/13 00:16:44;;;;;;;1.00;0.85;;;18.30;54.90;;;;;;5065184;28;20149;-50
2021/12/13 00:19:16;;;;;;;0.63;0.50;;;18.30;54.80;;;;;;5067014;28;20040;-50
2021/12/13 00:21:47;;;;;;;0.57;0.43;;;18.30;54.80;;;;;;5074728;28;20121;-51
2021/12/13 00:24:23;;;;;;;0.85;0.63;;;18.30;54.80;;;;;;5066141;28;20037;-47
2021/12/13 00:26:52;;;;;;;0.65;0.65;;;18.30;55.40;;;;;;5062792;28;20041;-49
2021/12/13 00:29:25;;;;;;;1.55;1.00;;;18.30;54.80;;;;;;5081447;28;20058;-51
2021/12/13 00:32:04;;;;;;;1.08;0.80;;;18.30;54.80;;;;;;5063290;28;20524;-51
2021/12/13 00:34:34;;;;;;;1.48;1.17;;;18.30;54.80;;;;;;5075997;28;20051;-50
2021/12/13 00:37:08;;;;;;;1.58;1.27;;;18.20;54.80;;;;;;5072072;28;20696;-50
2021/12/13 00:39:44;;;;;;;1.17;1.05;;;18.30;54.80;;;;;;5061887;28;20416;-50
2021/12/13 00:42:11;;;;;;;1.10;0.98;;;18.30;54.80;;;;;;5065736;28;20524;-50
2021/12/13 00:44:42;;;;;;;2.45;2.25;;;18.20;54.80;;;;;;5081882;28;20047;-53
2021/12/13 00:47:16;;;;;;;1.63;1.52;;;18.20;54.80;;;;;;5077933;28;20567;-52
2021/12/13 00:49:48;;;;;;;2.17;2.08;;;18.20;54.80;;;;;;5065897;28;20127;-50
2021/12/13 00:52:18;;;;;;;2.30;1.95;;;18.20;54.80;;;;;;5071581;28;20512;-51
2021/12/13 00:54:47;;;;;;;2.47;2.05;;;18.20;54.80;;;;;;5065495;28;20050;-49
2021/12/13 00:57:47;;;;;;;2.35;2.15;;;18.20;54.80;;;;;;5056449;28;20033;-49
2021/12/13 01:00:24;;;;;;;2.45;2.25;;;18.30;54.70;;;;;;5063068;28;20040;-50
2021/12/13 01:02:58;;;;;;;2.88;1.70;;;18.20;54.80;;;;;;5059351;28;20029;-52
2021/12/13 01:05:47;;;;;;;4.28;2.75;;;18.20;54.80;;;;;;5062418;28;20044;-54
2021/12/13 01:08:42;;;;;;;4.00;3.63;;;18.20;54.80;;;;;;5069488;28;20056;-51
2021/12/13 01:11:20;;;;;;;3.47;3.08;;;18.20;54.90;;;;;;5077996;28;20040;-49
2021/12/13 01:14:15;;;;;;;6.50;4.20;;;18.20;54.90;;;;;;5065432;28;20041;-52
2021/12/13 01:16:57;;;;;;;5.10;3.95;;;18.20;54.90;;;;;;5035748;28;20542;-54
2021/12/13 01:19:34;;;;;;;6.70;5.00;;;18.20;54.90;;;;;;5069491;28;20040;-51
2021/12/13 01:25:18;;;;;;;9.43;7.53;;;18.20;54.90;;;;;;5064752;28;20056;-50
2021/12/13 01:27:51;;;;;;;10.27;7.07;;;18.20;54.90;;;;;;5042053;28;20041;-52
2021/12/13 01:30:21;;;;;;;8.70;7.05;;;18.20;54.90;;;;;;5075293;28;20051;-50
2021/12/13 01:32:53;;;;;;;11.45;8.77;;;18.20;54.90;;;;;;5063914;28;20045;-49
2021/12/13 01:35:25;;;;;;;12.73;9.05;;;18.20;54.90;;;;;;5070084;28;20041;-51
2021/12/13 01:37:54;;;;;;;11.98;9.63;;;18.20;54.90;;;;;;5067560;28;20072;-49
2021/12/13 01:40:27;;;;;;;13.27;9.23;;;18.20;54.90;;;;;;5064749;28;20047;-48
2021/12/13 01:43:01;;;;;;;14.50;10.07;;;18.20;54.90;;;;;;5064946;28;20064;-50
2021/12/13 01:45:31;;;;;;;15.63;11.93;;;18.20;54.90;;;;;;5062531;28;20043;-53
2021/12/13 01:48:00;;;;;;;15.40;10.32;;;18.20;54.90;;;;;;5060289;28;20044;-49
2021/12/13 01:50:41;;;;;;;12.77;10.23;;;18.20;54.90;;;;;;5070010;28;20037;-49
2021/12/13 01:53:08;;;;;;;15.43;11.65;;;18.20;54.90;;;;;;5071945;28;20518;-48
2021/12/13 01:55:41;;;;;;;14.10;10.48;;;18.20;54.90;;;;;;5074435;28;20040;-49
2021/12/13 01:58:35;;;;;;;15.13;10.88;;;18.20;54.90;;;;;;5055737;28;20040;-52
2021/12/13 02:01:11;;;;;;;13.02;10.07;;;18.20;54.90;;;;;;5050265;28;20155;-50
2021/12/13 02:03:47;;;;;;;16.80;11.00;;;18.20;54.90;;;;;;5060532;28;20036;-50
2021/12/13 02:06:24;;;;;;;13.88;10.27;;;18.20;54.90;;;;;;5079009;28;20468;-50
2021/12/13 02:08:55;;;;;;;13.73;9.50;;;18.20;55.00;;;;;;5067552;28;20051;-49
2021/12/13 02:11:24;;;;;;;15.32;10.95;;;18.10;54.80;;;;;;5069254;28;20035;-49
2021/12/13 02:14:07;;;;;;;12.00;9.98;;;18.20;55.50;;;;;;5075969;28;20055;-51
2021/12/13 02:16:58;;;;;;;12.18;8.57;;;18.20;54.90;;;;;;5068919;28;20131;-54
2021/12/13 02:19:40;;;;;;;11.20;8.60;;;18.20;55.00;;;;;;5065631;28;20586;-52
2021/12/13 02:22:36;;;;;;;9.95;8.20;;;18.20;55.00;;;;;;5070338;28;20066;-52
2021/12/13 02:25:12;;;;;;;9.75;7.78;;;18.20;54.90;;;;;;5074472;28;20041;-53
2021/12/13 02:27:42;;;;;;;10.75;7.30;;;18.10;54.90;;;;;;5064604;28;20047;-54
2021/12/13 02:30:17;;;;;;;9.55;7.40;;;18.10;54.90;;;;;;5065200;28;20814;-50
2021/12/13 02:32:45;;;;;;;10.27;7.78;;;18.10;54.90;;;;;;5080705;28;20127;-48
2021/12/13 02:35:13;;;;;;;9.48;6.97;;;18.10;54.90;;;;;;5071720;28;20044;-50
2021/12/13 02:37:42;;;;;;;9.52;7.88;;;18.20;55.00;;;;;;5064601;28;20048;-52
2021/12/13 02:40:13;;;;;;;6.90;5.75;;;18.20;55.00;;;;;;5069902;28;20036;-53
2021/12/13 02:42:41;;;;;;;8.43;6.45;;;18.20;55.00;;;;;;5076339;28;20719;-53
2021/12/13 02:45:14;;;;;;;8.05;6.45;;;18.10;54.90;;;;;;5064438;28;20052;-49
2021/12/13 02:47:54;;;;;;;8.25;5.72;;;18.20;54.90;;;;;;5065407;28;20072;-52
2021/12/13 02:50:27;;;;;;;7.55;5.35;;;18.20;54.90;;;;;;5083135;28;20123;-51
2021/12/13 02:52:54;;;;;;;10.00;5.90;;;18.20;55.00;;;;;;5068779;28;20151;-48
2021/12/13 02:55:28;;;;;;;8.52;6.28;;;18.20;55.00;;;;;;5064175;28;20044;-50
2021/12/13 02:57:58;;;;;;;6.60;5.43;;;18.20;54.90;;;;;;5067535;28;20052;-50
2021/12/13 03:00:33;;;;;;;5.88;5.15;;;18.20;54.90;;;;;;5077680;28;20040;-53
2021/12/13 03:03:06;;;;;;;5.85;4.93;;;18.10;54.90;;;;;;5061051;28;20123;-52
2021/12/13 03:05:36;;;;;;;6.97;5.40;;;18.20;55.00;;;;;;5067027;28;20527;-53
2021/12/13 03:08:08;;;;;;;5.00;4.20;;;18.10;54.90;;;;;;5072375;28;20127;-52
2021/12/13 03:10:40;;;;;;;5.63;4.93;;;18.20;55.00;;;;;;5066378;28;20049;-52
2021/12/13 03:13:07;;;;;;;5.07;4.55;;;18.20;55.00;;;;;;5070964;28;20102;-50
2021/12/13 03:15:35;;;;;;;4.72;3.92;;;18.20;55.00;;;;;;5064130;28;20036;-48
2021/12/13 03:18:10;;;;;;;4.93;3.75;;;18.10;54.90;;;;;;5077633;28;20041;-53
2021/12/13 03:20:59;;;;;;;5.93;4.37;;;18.10;54.90;;;;;;5068614;28;20044;-52
2021/12/13 03:23:46;;;;;;;3.75;3.13;;;18.20;55.00;;;;;;5064971;28;20044;-52
2021/12/13 03:26:32;;;;;;;3.53;3.22;;;18.10;54.90;;;;;;5080840;28;20044;-50
2021/12/13 03:29:06;;;;;;;;;;;18.20;55.00;;;;;;5068915;28;20048;-53
2021/12/13 03:31:36;;;;;;;2.90;2.63;;;18.10;54.90;;;;;;5069860;28;19924;-51
2021/12/13 03:34:08;;;;;;;2.50;2.22;;;18.10;55.10;;;;;;5067271;28;20127;-47
2021/12/13 03:36:46;;;;;;;3.03;2.58;;;18.10;55.10;;;;;;5076959;28;20510;-47
2021/12/13 03:39:17;;;;;;;4.38;3.30;;;18.10;55.00;;;;;;5066633;28;20041;-46
2021/12/13 03:41:50;;;;;;;4.25;3.05;;;18.10;55.00;;;;;;5065638;28;20095;-50
2021/12/13 03:44:21;;;;;;;3.35;2.97;;;18.10;55.00;;;;;;5076302;28;20423;-48
2021/12/13 03:46:50;;;;;;;3.60;2.97;;;18.10;55.00;;;;;;5065496;28;20041;-48
2021/12/13 03:49:20;;;;;;;2.78;2.40;;;18.10;55.00;;;;;;5063798;28;20064;-51
2021/12/13 03:51:48;;;;;;;2.33;2.13;;;18.10;55.00;;;;;;5064574;28;20039;-50
2021/12/13 03:54:18;;;;;;;2.90;2.50;;;18.10;55.00;;;;;;5076911;28;20040;-51
2021/12/13 03:56:49;;;;;;;3.13;2.45;;;18.10;55.00;;;;;;5066448;28;20135;-52
2021/12/13 03:59:20;;;;;;;3.97;3.08;;;18.10;55.00;;;;;;5079686;28;20055;-50
2021/12/13 04:01:50;;;;;;;2.55;2.22;;;18.20;55.00;;;;;;5072984;28;20036;-49
2021/12/13 04:04:21;;;;;;;2.75;2.50;;;18.20;55.00;;;;;;5066316;28;20051;-49
2021/12/13 04:06:50;;;;;;;2.50;2.35;;;18.10;54.90;;;;;;5048875;28;20050;-49
2021/12/13 04:09:21;;;;;;;2.15;1.95;;;18.10;54.90;;;;;;5061597;28;20045;-49
2021/12/13 04:11:54;;;;;;;2.53;2.33;;;18.10;54.90;;;;;;5060636;28;20052;-49
2021/12/13 04:14:28;;;;;;;3.17;2.45;;;18.10;55.50;;;;;;5052167;28;20465;-49
2021/12/13 04:17:06;;;;;;;1.88;1.60;;;18.10;55.00;;;;;;5069540;28;20141;-50
2021/12/13 04:19:46;;;;;;;2.42;2.13;;;18.10;55.00;;;;;;5070018;28;20055;-46
2021/12/13 04:22:16;;;;;;;3.55;2.25;;;18.20;55.00;;;;;;5071100;28;20044;-47
2021/12/13 04:24:47;;;;;;;1.98;1.75;;;18.10;55.00;;;;;;5068041;28;20700;-49
2021/12/13 04:27:22;;;;;;;1.73;1.58;;;18.10;55.00;;;;;;5061831;28;20132;-50
2021/12/13 04:29:52;;;;;;;2.38;1.23;;;18.10;54.90;;;;;;5078189;28;20409;-52
2021/12/13 04:32:27;;;;;;;2.50;1.42;;;18.10;55.00;;;;;;5070417;28;20040;-51
2021/12/13 04:34:57;;;;;;;2.63;2.42;;;18.10;54.90;;;;;;5068759;28;20131;-47
2021/12/13 04:37:27;;;;;;;1.67;1.58;;;18.10;55.00;;;;;;5066230;28;20112;-51
2021/12/13 04:39:57;;;;;;;1.80;1.15;;;18.10;55.00;;;;;;5065239;28;20691;-45
2021/12/13 04:42:28;;;;;;;1.75;1.48;;;18.10;55.00;;;;;;5066965;28;20042;-46
2021/12/13 04:44:59;;;;;;;1.58;1.48;;;18.10;55.00;;;;;;5061682;28;20048;-47
2021/12/13 04:47:31;;;;;;;1.67;1.58;;;18.10;55.00;;;;;;5078135;28;20124;-47
2021/12/13 04:50:07;;;;;;;1.92;1.10;;;18.10;55.00;;;;;;5067797;28;20052;-53
2021/12/13 04:52:35;;;;;;;1.30;1.30;;;18.10;55.00;;;;;;5075767;28;20044;-52
2021/12/13 04:55:07;;;;;;;2.10;1.70;;;18.10;55.00;;;;;;5071893;28;20043;-48
2021/12/13 04:57:36;;;;;;;1.67;1.45;;;18.10;55.00;;;;;;5058428;28;20040;-51
2021/12/13 05:00:09;;;;;;;4.10;1.50;;;18.10;55.00;;;;;;5065396;28;20048;-53
2021/12/13 05:02:36;;;;;;;1.55;1.45;;;18.10;55.00;;;;;;5080482;28;20131;-46
2021/12/13 05:05:05;;;;;;;1.70;1.60;;;18.10;55.00;;;;;;5049499;28;20055;-51
2021/12/13 05:07:34;;;;;;;1.13;1.02;;;18.10;55.00;;;;;;5064974;28;20769;-47
2021/12/13 05:10:02;;;;;;;4.03;1.05;;;18.10;54.90;;;;;;5066840;28;20056;-50
2021/12/13 05:12:29;;;;;;;1.50;1.15;;;18.10;55.00;;;;;;5076051;28;20123;-50
2021/12/13 05:15:00;;;;;;;1.60;1.05;;;18.10;55.00;;;;;;5061433;28;20107;-51
2021/12/13 05:17:33;;;;;;;1.40;1.30;;;18.10;54.90;;;;;;5059729;28;20130;-48
2021/12/13 05:20:13;;;;;;;1.40;1.30;;;18.10;55.00;;;;;;5076552;28;20044;-51
2021/12/13 05:22:47;;;;;;;1.02;0.77;;;18.10;54.90;;;;;;5066239;28;20507;-50
2021/12/13 05:25:22;;;;;;;1.42;1.00;;;18.10;54.90;;;;;;5060793;28;20046;-48
2021/12/13 05:28:00;;;;;;;1.58;0.93;;;18.10;55.00;;;;;;5072893;28;20098;-51
2021/12/13 05:30:29;;;;;;;1.00;1.00;;;18.10;55.00;;;;;;5079630;28;20055;-50
2021/12/13 05:32:59;;;;;;;0.82;0.82;;;18.10;55.00;;;;;;5064957;28;20037;-46
2021/12/13 05:35:31;;;;;;;1.48;0.90;;;18.10;55.00;;;;;;5067623;28;20040;-46
2021/12/13 05:38:02;;;;;;;1.50;0.40;;;18.10;55.00;;;;;;5069445;28;20053;-47
2021/12/13 05:40:36;;;;;;;0.85;0.60;;;18.10;55.00;;;;;;5068468;28;20432;-46
2021/12/13 05:43:15;;;;;;;0.80;0.80;;;18.10;54.90;;;;;;5069329;28;20106;-50
2021/12/13 05:45:47;;;;;;;0.75;0.63;;;18.10;54.90;;;;;;5061574;28;20132;-50
2021/12/13 05:48:17;;;;;;;1.17;1.08;;;18.10;55.00;;;;;;5063466;28;20040;-51
2021/12/13 05:50:49;;;;;;;0.60;0.50;;;18.10;55.00;;;;;;5069691;28;20409;-50
2021/12/13 05:53:18;;;;;;;0.63;0.63;;;18.10;55.00;;;;;;5072622;28;20040;-48
2021/12/13 05:55:50;;;;;;;3.20;0.70;;;18.10;54.90;;;;;;5057748;28;20055;-51
2021/12/13 05:58:32;;;;;;;0.70;0.70;;;18.10;55.00;;;;;;5072765;28;20041;-48
2021/12/13 06:01:10;;;;;;;0.75;0.70;;;18.10;54.90;;;;;;5066946;28;20050;-48
2021/12/13 06:03:40;;;;;;;0.60;0.60;;;18.10;55.00;;;;;;5060016;28;20047;-48
2021/12/13 06:06:10;;;;;;;0.82;0.65;;;18.10;55.00;;;;;;5078568;28;20413;-48
2021/12/13 06:08:43;;;;;;;0.80;0.75;;;18.10;55.00;;;;;;5071424;28;20102;-51
2021/12/13 06:11:12;;;;;;;0.70;0.70;;;18.00;54.90;;;;;;5067323;28;20052;-47
2021/12/13 06:14:03;;;;;;;0.60;0.50;;;18.10;55.00;;;;;;5075036;28;20055;-45
2021/12/13 06:16:42;;;;;;;0.57;0.57;;;18.10;54.90;;;;;;5070601;28;20052;-51
2021/12/13 06:19:23;;;;;;;0.77;0.52;;;18.10;55.00;;;;;;5058659;28;20040;-51
2021/12/13 06:21:59;;;;;;;0.85;0.70;;;18.10;55.00;;;;;;5062857;28;20124;-49
2021/12/13 06:24:29;;;;;;;0.50;0.35;;;18.10;55.00;;;;;;5070825;28;20511;-52
2021/12/13 06:27:06;;;;;;;0.50;0.50;;;18.00;55.00;;;;;;5065659;28;20098;-51
2021/12/13 06:30:09;;;;;;;1.15;0.52;;;18.10;55.00;;;;;;5076621;28;20144;-50
2021/12/13 06:32:44;;;;;;;0.68;0.50;;;18.10;54.90;;;;;;5079582;28;20047;-48
2021/12/13 06:35:46;;;;;;;2.47;0.60;;;18.00;54.90;;;;;;5070930;28;20040;-52
2021/12/13 06:38:41;;;;;;;0.40;0.40;;;18.00;54.90;;;;;;5067233;28;20045;-51
2021/12/13 06:41:19;;;;;;;1.42;0.77;;;18.00;55.00;;;;;;5081678;28;20051;-51
2021/12/13 06:43:51;;;;;;;0.57;0.57;;;18.00;55.00;;;;;;5068079;28;20047;-46
2021/12/13 06:46:48;;;;;;;0.50;0.50;;;18.00;55.00;;;;;;5064430;28;20539;-50
2021/12/13 06:49:24;;;;;;;1.33;0.30;;;18.00;55.00;;;;;;5067156;28;20048;-47
2021/12/13 06:51:53;;;;;;;;;;;18.00;55.00;;;;;;5076367;28;20126;-48
2021/12/13 06:54:27;;;;;;;0.43;0.35;;;17.90;54.90;;;;;;5064509;28;19959;-47
2021/12/13 06:56:59;;;;;;;0.75;0.45;;;17.90;55.10;;;;;;5063844;28;20045;-50
2021/12/13 06:59:30;;;;;;;0.43;0.35;;;17.90;55.10;;;;;;5070237;28;20033;-50
2021/12/13 07:02:11;;;;;;;0.77;0.77;;;17.90;55.00;;;;;;5069349;28;20568;-50
2021/12/13 07:04:53;;;;;;;0.55;0.20;;;18.00;55.10;;;;;;5064866;28;20039;-53
2021/12/13 07:07:23;;;;;;;0.88;0.20;;;18.00;55.00;;;;;;5073168;28;20048;-49
2021/12/13 07:09:56;;;;;;;0.73;0.40;;;18.00;55.00;;;;;;5067163;28;20047;-51
2021/12/13 07:12:27;;;;;;;0.30;0.28;;;18.00;55.00;;;;;;5063651;28;20097;-50
2021/12/13 07:14:54;;;;;;;0.30;0.30;;;18.00;55.00;;;;;;5064418;28;20067;-50
2021/12/13 07:17:27;;;;;;;1.00;0.20;;;18.00;55.00;;;;;;5082412;28;20725;-52
2021/12/13 07:19:56;;;;;;;1.85;0.20;;;18.00;55.00;;;;;;5064772;28;20119;-47
2021/12/13 07:22:26;;;;;;;0.20;0.20;;;18.00;54.90;;;;;;5071754;28;20239;-47
2021/12/13 07:25:01;;;;;;;0.40;0.40;;;18.00;54.90;;;;;;5074156;28;20131;-50
2021/12/13 07:27:33;;;;;;;0.20;0.20;;;18.00;54.90;;;;;;5077466;28;20221;-52
2021/12/13 07:30:07;;;;;;;0.22;0.22;;;18.00;54.90;;;;;;5062665;28;20040;-53
2021/12/13 07:32:37;;;;;;;0.43;0.43;;;18.00;54.90;;;;;;5068825;28;20123;-49
2021/12/13 07:35:09;;;;;;;0.35;0.30;;;18.00;54.90;;;;;;5079218;28;20408;-46
2021/12/13 07:37:43;;;;;;;0.50;0.38;;;18.00;54.90;;;;;;5068707;28;20580;-49
2021/12/13 07:40:37;;;;;;;0.50;0.35;;;18.00;54.90;;;;;;5069571;28;20041;-50
2021/12/13 07:43:18;;;;;;;2.35;0.30;;;18.00;54.90;;;;;;5063716;28;20515;-48
2021/12/13 07:45:57;;;;;;;1.55;0.68;;;18.00;54.90;;;;;;5074404;28;20122;-50
2021/12/13 07:48:30;;;;;;;0.57;0.52;;;18.00;54.90;;;;;;5080244;28;20412;-48
2021/12/13 07:51:05;;;;;;;0.88;0.55;;;17.90;54.90;;;;;;5057233;28;20048;-53
2021/12/13 07:53:40;;;;;;;0.47;0.47;;;18.00;54.90;;;;;;5077640;28;20044;-53
2021/12/13 07:56:09;;;;;;;2.30;0.50;;;18.00;54.90;;;;;;5054681;28;20052;-49
2021/12/13 07:58:40;;;;;;;1.13;1.02;;;17.90;54.80;;;;;;5068732;28;20045;-51
2021/12/13 08:01:11;;;;;;;1.50;1.42;;;18.00;54.90;;;;;;5066248;28;20040;-52
2021/12/13 08:03:49;;;;;;;1.40;1.33;;;17.90;54.80;;;;;;5075771;28;20040;-50
2021/12/13 08:06:17;;;;;;;1.00;0.98;;;18.00;54.90;;;;;;5066669;28;20040;-52
2021/12/13 08:08:53;;;;;;;1.63;1.52;;;18.00;54.90;;;;;;5065256;28;20799;-51
2021/12/13 08:11:39;;;;;;;1.00;0.98;;;18.00;54.90;;;;;;5081718;28;20127;-54
2021/12/13 08:14:07;;;;;;;1.55;1.42;;;18.00;54.80;;;;;;5070774;28;20041;-53
2021/12/13 08:16:38;;;;;;;1.75;1.65;;;17.90;54.80;;;;;;5065817;28;20048;-54
2021/12/13 08:19:13;;;;;;;1.65;1.55;;;18.00;54.90;;;;;;5065863;28;20052;-49
2021/12/13 08:21:46;;;;;;;2.15;2.05;;;18.00;54.90;;;;;;5075223;28;20051;-51
2021/12/13 08:24:25;;;;;;;3.08;1.90;;;18.00;54.90;;;;;;5066171;28;20079;-53
2021/12/13 08:27:02;;;;;;;2.20;2.03;;;18.00;54.80;;;;;;5063207;28;20037;-49
2021/12/13 08:29:32;;;;;;;1.70;1.40;;;18.00;54.80;;;;;;5078753;28;20123;-52
2021/12/13 08:32:02;;;;;;;2.13;1.83;;;17.90;54.70;;;;;;5068237;28;20417;-49
2021/12/13 08:34:33;;;;;;;4.68;2.60;;;18.00;54.90;;;;;;5068963;28;20068;-54
2021/12/13 08:37:12;;;;;;;1.95;1.75;;;18.00;54.80;;;;;;5065344;28;20044;-50
2021/12/13 08:39:40;;;;;;;3.67;2.47;;;18.00;54.80;;;;;;5062892;28;20048;-47
2021/12/13 08:42:10;;;;;;;1.90;1.80;;;18.00;54.80;;;;;;5064740;28;20408;-52
2021/12/13 08:44:40;;;;;;;3.40;1.95;;;18.00;54.80;;;;;;5067642;28;20052;-51
2021/12/13 08:47:11;;;;;;;3.53;2.45;;;18.00;54.80;;;;;;5069829;28;20385;-50
2021/12/13 08:49:42;;;;;;;4.07;2.25;;;18.00;54.70;;;;;;5061660;28;20424;-52
2021/12/13 08:52:23;;;;;;;2.30;1.60;;;18.00;54.70;;;;;;5073194;28;20040;-53
2021/12/13 08:54:59;;;;;;;2.05;1.85;;;18.00;54.70;;;;;;5057409;28;20125;-52
2021/12/13 08:57:41;;;;;;;1.75;1.65;;;18.00;54.70;;;;;;5076104;28;20040;-52
2021/12/13 09:00:23;;;;;;;2.47;1.75;;;18.00;54.70;;;;;;5062545;28;20516;-48
2021/12/13 09:02:54;;;;;;;3.38;1.55;;;18.00;54.70;;;;;;5083219;28;20417;-53
2021/12/13 09:05:27;;;;;;;2.20;1.75;;;18.00;54.70;;;;;;5074799;28;20080;-53
2021/12/13 09:07:58;;;;;;;1.58;1.05;;;18.00;54.70;;;;;;5067096;28;20051;-52
2021/12/13 09:10:41;;;;;;;1.35;1.25;;;18.00;54.70;;;;;;5075968;28;20074;-51
2021/12/13 09:13:10;;;;;;;1.33;1.23;;;18.00;54.70;;;;;;5071149;28;20060;-49
2021/12/13 09:15:37;;;;;;;1.35;1.02;;;18.00;54.70;;;;;;5069462;28;20042;-52
2021/12/13 09:18:06;;;;;;;4.03;1.20;;;18.00;54.70;;;;;;5069336;28;20036;-50
2021/12/13 09:20:38;;;;;;;1.45;0.88;;;18.00;54.60;;;;;;5084352;28;20426;-49
2021/12/13 09:23:13;;;;;;;1.17;1.08;;;18.00;54.70;;;;;;5071570;28;20052;-52
2021/12/13 09:25:45;;;;;;;0.80;0.65;;;18.10;54.70;;;;;;5069031;28;20048;-49
2021/12/13 09:28:16;;;;;;;1.83;1.20;;;18.10;54.70;;;;;;5071592;28;20084;-49
2021/12/13 09:30:46;;;;;;;1.42;0.90;;;18.10;54.70;;;;;;5077923;28;20059;-52
2021/12/13 09:33:18;;;;;;;1.35;1.05;;;18.10;54.70;;;;;;5050275;28;20127;-51
2021/12/13 09:35:50;;;;;;;0.85;0.70;;;18.10;54.70;;;;;;5064797;28;20044;-51
2021/12/13 09:38:31;;;;;;;1.13;0.60;;;18.10;54.70;;;;;;5073876;28;20087;-50
2021/12/13 09:41:04;;;;;;;0.70;0.60;;;18.10;54.60;;;;;;5071169;28;20044;-50
2021/12/13 09:43:39;;;;;;;2.95;1.55;;;18.10;54.60;;;;;;5069284;28;20043;-52
2021/12/13 09:46:06;;;;;;;1.38;0.50;;;18.10;54.60;;;;;;5070681;28;20055;-50
2021/12/13 09:48:39;;;;;;;0.82;0.82;;;18.10;54.60;;;;;;5079151;28;20518;-50
2021/12/13 09:51:13;;;;;;;1.55;0.43;;;18.10;54.50;;;;;;5065700;28;20071;-54
2021/12/13 09:53:41;;;;;;;4.15;0.73;;;18.10;54.50;;;;;;5069466;28;20048;-53
2021/12/13 09:56:13;;;;;;;0.50;0.43;;;18.10;54.50;;;;;;5082010;28;20183;-54
2021/12/13 09:58:43;;;;;;;1.38;0.47;;;18.20;54.50;;;;;;5066442;28;20041;-48
2021/12/13 10:01:15;;;;;;;1.35;0.88;;;18.20;54.50;;;;;;5065841;28;20419;-50
2021/12/13 10:03:51;;;;;;;0.77;0.28;;;18.10;54.40;;;;;;5066825;28;20413;-53
2021/12/13 10:06:22;;;;;;;0.35;0.20;;;18.20;54.40;;;;;;5079601;28;20132;-52
2021/12/13 10:08:54;;;;;;;0.28;0.28;;;18.20;54.40;;;;;;5068156;28;20143;-51
2021/12/13 10:11:26;;;;;;;1.13;0.30;;;18.20;54.40;;;;;;5068703;28;20131;-50
2021/12/13 10:13:53;;;;;;;0.47;0.20;;;18.20;54.40;;;;;;5075848;28;20334;-52
2021/12/13 10:16:26;;;;;;;0.52;0.38;;;18.20;54.30;;;;;;5072173;28;20037;-48
2021/12/13 10:18:54;;;;;;;1.75;0.20;;;18.20;54.30;;;;;;5065233;28;20063;-50
2021/12/13 10:21:24;;;;;;;1.05;0.20;;;18.20;54.20;;;;;;5065445;28;20048;-49
2021/12/13 10:23:55;;;;;;;1.08;0.20;;;18.20;54.20;;;;;;5062384;28;20045;-51
2021/12/13 10:26:25;;;;;;;0.75;0.50;;;18.20;54.10;;;;;;5073109;28;20648;-51
2021/12/13 10:28:56;;;;;;;0.40;0.17;;;18.20;54.10;;;;;;5065113;28;20048;-49
2021/12/13 10:31:28;;;;;;;1.02;0.22;;;18.20;54.10;;;;;;5072102;28;20282;-52
2021/12/13 10:33:57;;;;;;;0.52;0.52;;;18.20;54.20;;;;;;5075360;28;20060;-51
2021/12/13 10:36:28;;;;;;;0.68;0.35;;;18.20;54.10;;;;;;5058804;28;20043;-49
2021/12/13 10:39:00;;;;;;;0.28;0.10;;;18.20;54.10;;;;;;5064985;28;20167;-48
2021/12/13 10:41:32;;;;;;;0.20;0.20;;;18.20;54.10;;;;;;5062611;28;20054;-49
2021/12/13 10:44:05;;;;;;;1.67;0.20;;;18.20;54.10;;;;;;5067479;28;20786;-46
2021/12/13 10:46:38;;;;;;;0.68;0.10;;;18.20;54.10;;;;;;5046962;28;20047;-50
2021/12/13 10:49:10;;;;;;;0.30;0.30;;;18.20;54.10;;;;;;5069104;28;20044;-53
2021/12/13 10:51:39;;;;;;;0.15;0.10;;;18.20;54.10;;;;;;5077927;28;20123;-50
2021/12/13 10:54:13;;;;;;;0.50;0.20;;;18.20;54.20;;;;;;5063419;28;20063;-50
2021/12/13 10:56:45;;;;;;;1.83;0.10;;;18.20;54.10;;;;;;5047475;28;20456;-49
2021/12/13 10:59:16;;;;;;;0.85;0.20;;;18.10;54.00;;;;;;5082110;28;20040;-52
2021/12/13 11:01:47;;;;;;;0.20;0.20;;;18.20;54.10;;;;;;5068581;28;20063;-50
2021/12/13 11:04:17;;;;;;;0.30;0.30;;;18.10;54.00;;;;;;5065874;28;20047;-48
2021/12/13 11:06:46;;;;;;;0.70;0.15;;;18.10;54.60;;;;;;5065520;28;20041;-51
2021/12/13 11:09:19;;;;;;;1.40;0.10;;;18.20;54.10;;;;;;5067410;28;20111;-54
2021/12/13 11:11:49;;;;;;;1.02;0.20;;;18.20;54.00;;;;;;5061747;28;20103;-51
2021/12/13 11:14:20;;;;;;;1.00;0.20;;;18.20;54.00;;;;;;5072707;28;20179;-55
2021/12/13 11:16:50;;;;;;;0.68;0.20;;;18.10;53.90;;;;;;5074195;28;20039;-51
2021/12/13 11:19:20;;;;;;;0.63;0.25;;;18.20;54.00;;;;;;5071436;28;20049;-51
2021/12/13 11:21:51;;;;;;;0.40;0.20;;;18.10;53.90;;;;;;5070164;28;20059;-52
2021/12/13 11:24:22;;;;;;;0.20;0.20;;;18.20;53.90;;;;;;5044806;28;20046;-52
2021/12/13 11:26:53;;;;;;;1.02;0.10;;;18.10;53.90;;;;;;5079980;28;20045;-50
2021/12/13 11:29:20;;;;;;;0.40;0.40;;;18.10;53.90;;;;;;5067967;28;20363;-53
2021/12/13 11:32:29;;;;;;;1.73;0.57;;;18.10;53.80;;;;;;5069900;28;20048;-54
2021/12/13 11:35:31;;;;;;;1.38;0.20;;;18.20;53.80;;;;;;5075866;28;20032;-53
2021/12/13 11:38:17;;;;;;;0.60;0.60;;;18.10;53.90;;;;;;5068388;28;20052;-49
2021/12/13 11:41:08;;;;;;;0.47;0.20;;;18.10;53.90;;;;;;5069527;28;20421;-52
2021/12/13 11:43:52;;;;;;;0.20;0.10;;;18.10;53.80;;;;;;5070980;28;20047;-52
2021/12/13 11:46:58;;;;;;;0.85;0.30;;;18.10;53.90;;;;;;5070689;28;20121;-53
2021/12/13 11:49:46;;;;;;;0.32;0.32;;;18.10;53.80;;;;;;5064902;28;20052;-52
2021/12/13 11:52:51;;;;;;;0.20;0.10;;;18.10;53.90;;;;;;5068085;28;20047;-52
2021/12/13 11:55:44;;;;;;;0.30;0.10;;;18.10;53.80;;;;;;5070940;28;20045;-52
2021/12/13 11:58:34;;;;;;;0.40;0.20;;;18.10;53.80;;;;;;5069976;28;20043;-50
2021/12/13 12:01:27;;;;;;;0.20;0.10;;;18.10;53.80;;;;;;5065047;28;20500;-51
2021/12/13 12:04:44;;;;;;;0.22;0.10;;;18.10;53.80;;;;;;5073834;28;20053;-49
2021/12/13 12:07:42;;;;;;;0.73;0.10;;;18.10;53.80;;;;;;5024998;28;20049;-51
2021/12/13 12:10:34;;;;;;;4.68;0.43;;;18.10;53.80;;;;;;5007655;28;20049;-50
2021/12/13 12:13:15;;;;;;;0.82;0.17;;;18.10;53.80;;;;;;5016834;28;20045;-52
2021/12/13 12:15:46;;;;;;;0.20;0.10;;;18.10;53.80;;;;;;5021266;28;20037;-49
2021/12/13 12:18:17;;;;;;;1.23;0.28;;;18.10;53.80;;;;;;5019868;28;20033;-50
2021/12/13 12:20:48;;;;;;;0.20;0.20;;;18.10;53.80;;;;;;5036421;28;20140;-50
2021/12/13 12:23:28;;;;;;;0.20;0.10;;;18.10;53.80;;;;;;5028197;28;20623;-54
2021/12/13 12:25:57;;;;;;;0.17;0.10;;;18.10;53.70;;;;;;5026858;28;20063;-50
2021/12/13 12:28:26;;;;;;;0.55;0.20;;;18.10;53.80;;;;;;5026373;28;20056;-50
2021/12/13 12:30:57;;;;;;;1.95;0.20;;;18.10;53.70;;;;;;5030627;28;20133;-50
2021/12/13 12:33:31;;;;;;;0.40;0.17;;;18.10;53.70;;;;;;5024963;28;20068;-49
2021/12/13 12:36:04;;;;;;;0.20;0.10;;;18.10;53.60;;;;;;5004601;28;20156;-50
2021/12/13 12:39:07;;;;;;;0.77;0.28;;;18.10;53.60;;;;;;5028197;28;20509;-54
2021/12/13 12:41:50;;;;;;;1.27;0.20;;;18.10;53.60;;;;;;5022092;28;20048;-51
2021/12/13 12:44:20;;;;;;;1.55;0.17;;;18.10;53.60;;;;;;5068839;28;20055;-50
2021/12/13 12:46:50;;;;;;;0.20;0.10;;;18.10;53.60;;;;;;5066811;28;20073;-51
2021/12/13 12:49:22;;;;;;;2.13;0.70;;;18.10;53.60;;;;;;5065357;28;20066;-51
2021/12/13 12:51:52;;;;;;;0.20;0.20;;;18.10;53.60;;;;;;5067433;28;20064;-49
2021/12/13 12:54:21;;;;;;;2.85;0.30;;;18.10;53.60;;;;;;5076534;28;20190;-49
2021/12/13 12:56:53;;;;;;;0.60;0.20;;;18.10;53.60;;;;;;5063866;28;20045;-51
2021/12/13 12:59:25;;;;;;;0.52;0.10;;;18.10;53.60;;;;;;5046445;28;20933;-49
2021/12/13 13:01:59;;;;;;;1.48;0.30;;;18.10;53.60;;;;;;5075759;28;20041;-52
2021/12/13 13:04:28;;;;;;;0.22;0.10;;;18.10;53.60;;;;;;5068545;28;20048;-52
2021/12/13 13:07:04;;;;;;;0.52;0.20;;;18.10;53.50;;;;;;5065112;28;20047;-51
2021/12/13 13:09:41;;;;;;;1.33;0.30;;;18.10;53.60;;;;;;5065313;28;20047;-49
2021/12/13 13:12:12;;;;;;;0.22;0.15;;;18.10;53.50;;;;;;5056368;28;20043;-49
2021/12/13 13:14:52;;;;;;;0.40;0.20;;;18.10;53.50;;;;;;5066966;28;20137;-49
2021/12/13 13:17:24;;;;;;;0.38;0.25;;;18.10;54.10;;;;;;5070047;28;20428;-52
2021/12/13 13:19:54;;;;;;;0.10;0.10;;;18.10;53.50;;;;;;5072971;28;20112;-51
2021/12/13 13:22:24;;;;;;;0.30;0.17;;;18.10;53.60;;;;;;5069655;28;20044;-51
2021/12/13 13:24:56;;;;;;;0.47;0.20;;;18.10;53.60;;;;;;5061341;28;20040;-47
2021/12/13 13:27:27;;;;;;;0.80;0.57;;;18.10;53.60;;;;;;5062883;28;20060;-52